sensor_id;sensor_type;location;lat;lon;timestamp;temperature;humidity
774;DHT22;370;48.810;9.150;2022-08-21T00:00:22;18.10;1.00
774;DHT22;370;48.810;9.150;2022-08-21T00:02:53;18.10;1.00
774;DHT22;370;48.810;9.150;2022-08-21T00:05:20;18.00;1.00
774;DHT22;370;48.810;9.150;2022-08-21T00:07:49;18.00;1.00
774;DHT22;370;48.810;9.150;2022-08-21T00:10:16;18.00;1.00
774;DHT22;370;48.810;9.150;2022-08-21T00:12:44;18.00;1.00
774;DHT22;370;48.810;9.150;2022-08-21T00:15:14;17.90;1.00
774;DHT22;370;48.810;9.150;2022-08-21T00:17:41;17.90;1.00
774;DHT22;370;48.810;9.150;2022-08-21T00:20:10;17.80;1.00
774;DHT22;370;48.810;9.150;2022-08-21T00:22:37;17.70;1.00
774;DHT22;370;48.810;9.150;2022-08-21T00:25:07;17.80;1.00
774;DHT22;370;48.810;9.150;2022-08-21T00:27:35;17.80;1.00
774;DHT22;370;48.810;9.150;2022-08-21T00:30:04;17.80;1.00
774;DHT22;370;48.810;9.150;2022-08-21T00:32:31;17.70;1.00
774;DHT22;370;48.810;9.150;2022-08-21T00:34:57;17.70;1.00
774;DHT22;370;48.810;9.150;2022-08-21T00:37:24;17.60;1.00
774;DHT22;370;48.810;9.150;2022-08-21T00:39:52;17.60;1.00
774;DHT22;370;48.810;9.150;2022-08-21T00:42:20;17.50;1.00
774;DHT22;370;48.810;9.150;2022-08-21T00:44:49;17.50;1.00
774;DHT22;370;48.810;9.150;2022-08-21T00:47:17;17.40;1.00
774;DHT22;370;48.810;9.150;2022-08-21T00:49:44;17.40;1.00
774;DHT22;370;48.810;9.150;2022-08-21T00:52:16;17.40;1.00
774;DHT22;370;48.810;9.150;2022-08-21T00:54:43;17.30;1.00
774;DHT22;370;48.810;9.150;2022-08-21T00:57:14;17.30;1.00
774;DHT22;370;48.810;9.150;2022-08-21T00:59:46;17.30;1.00
774;DHT22;370;48.810;9.150;2022-08-21T01:02:15;17.20;1.40
774;DHT22;370;48.810;9.150;2022-08-21T01:04:41;17.20;1.80
774;DHT22;370;48.810;9.150;2022-08-21T01:07:09;17.20;2.00
774;DHT22;370;48.810;9.150;2022-08-21T01:09:36;17.10;2.20
774;DHT22;370;48.810;9.150;2022-08-21T01:12:03;17.10;2.40
774;DHT22;370;48.810;9.150;2022-08-21T01:14:30;17.10;2.50
774;DHT22;370;48.810;9.150;2022-08-21T01:16:59;17.10;2.70
774;DHT22;370;48.810;9.150;2022-08-21T01:19:28;17.00;2.80
774;DHT22;370;48.810;9.150;2022-08-21T01:21:57;17.00;3.00
774;DHT22;370;48.810;9.150;2022-08-21T01:24:25;16.90;3.30
774;DHT22;370;48.810;9.150;2022-08-21T01:26:52;16.90;3.70
774;DHT22;370;48.810;9.150;2022-08-21T01:29:26;16.90;3.80
774;DHT22;370;48.810;9.150;2022-08-21T01:31:56;16.90;4.20
774;DHT22;370;48.810;9.150;2022-08-21T01:34:23;16.90;4.10
774;DHT22;370;48.810;9.150;2022-08-21T01:36:50;16.80;4.30
774;DHT22;370;48.810;9.150;2022-08-21T01:39:19;16.80;4.60
774;DHT22;370;48.810;9.150;2022-08-21T01:41:45;16.80;4.70
774;DHT22;370;48.810;9.150;2022-08-21T01:44:12;16.70;4.80
774;DHT22;370;48.810;9.150;2022-08-21T01:46:39;16.70;5.10
774;DHT22;370;48.810;9.150;2022-08-21T01:49:06;16.60;5.00
774;DHT22;370;48.810;9.150;2022-08-21T01:51:32;16.60;5.40
774;DHT22;370;48.810;9.150;2022-08-21T01:53:59;16.60;5.50
774;DHT22;370;48.810;9.150;2022-08-21T01:56:27;16.60;5.70
774;DHT22;370;48.810;9.150;2022-08-21T01:58:55;16.50;5.90
774;DHT22;370;48.810;9.150;2022-08-21T02:01:21;16.50;6.30
774;DHT22;370;48.810;9.150;2022-08-21T02:03:48;16.50;6.60
774;DHT22;370;48.810;9.150;2022-08-21T02:06:15;16.40;6.50
774;DHT22;370;48.810;9.150;2022-08-21T02:08:43;16.40;6.70
774;DHT22;370;48.810;9.150;2022-08-21T02:11:10;16.30;7.40
774;DHT22;370;48.810;9.150;2022-08-21T02:13:38;16.30;7.50
774;DHT22;370;48.810;9.150;2022-08-21T02:16:05;16.30;7.70
774;DHT22;370;48.810;9.150;2022-08-21T02:18:33;16.20;7.50
774;DHT22;370;48.810;9.150;2022-08-21T02:21:00;16.20;8.10
774;DHT22;370;48.810;9.150;2022-08-21T02:23:27;16.20;8.00
774;DHT22;370;48.810;9.150;2022-08-21T02:25:54;16.20;8.50
774;DHT22;370;48.810;9.150;2022-08-21T02:28:22;16.10;9.20
774;DHT22;370;48.810;9.150;2022-08-21T02:30:50;16.10;9.20
774;DHT22;370;48.810;9.150;2022-08-21T02:33:17;16.00;9.10
774;DHT22;370;48.810;9.150;2022-08-21T02:35:46;16.00;9.10
774;DHT22;370;48.810;9.150;2022-08-21T02:38:16;16.00;9.10
774;DHT22;370;48.810;9.150;2022-08-21T02:40:45;16.00;9.10
774;DHT22;370;48.810;9.150;2022-08-21T02:43:12;16.00;9.10
774;DHT22;370;48.810;9.150;2022-08-21T02:45:40;15.90;9.00
774;DHT22;370;48.810;9.150;2022-08-21T02:48:10;15.90;9.60
774;DHT22;370;48.810;9.150;2022-08-21T02:50:40;15.90;9.50
774;DHT22;370;48.810;9.150;2022-08-21T02:53:10;15.90;9.70
774;DHT22;370;48.810;9.150;2022-08-21T02:55:37;15.90;9.90
774;DHT22;370;48.810;9.150;2022-08-21T02:58:06;15.80;10.10
774;DHT22;370;48.810;9.150;2022-08-21T03:00:35;15.80;10.60
774;DHT22;370;48.810;9.150;2022-08-21T03:03:03;15.80;10.60
774;DHT22;370;48.810;9.150;2022-08-21T03:05:32;15.80;10.70
774;DHT22;370;48.810;9.150;2022-08-21T03:08:00;15.80;10.70
774;DHT22;370;48.810;9.150;2022-08-21T03:10:27;15.70;10.80
774;DHT22;370;48.810;9.150;2022-08-21T03:12:56;15.70;11.00
774;DHT22;370;48.810;9.150;2022-08-21T03:15:23;15.70;11.40
774;DHT22;370;48.810;9.150;2022-08-21T03:17:50;15.70;11.40
774;DHT22;370;48.810;9.150;2022-08-21T03:20:20;15.70;11.70
774;DHT22;370;48.810;9.150;2022-08-21T03:22:49;15.60;11.80
774;DHT22;370;48.810;9.150;2022-08-21T03:25:16;15.60;11.80
774;DHT22;370;48.810;9.150;2022-08-21T03:27:44;15.50;12.40
774;DHT22;370;48.810;9.150;2022-08-21T03:30:11;15.60;12.50
774;DHT22;370;48.810;9.150;2022-08-21T03:32:38;15.50;12.60
774;DHT22;370;48.810;9.150;2022-08-21T03:35:08;15.50;12.60
774;DHT22;370;48.810;9.150;2022-08-21T03:37:35;15.50;12.70
774;DHT22;370;48.810;9.150;2022-08-21T03:40:04;15.50;12.70
774;DHT22;370;48.810;9.150;2022-08-21T03:42:31;15.50;12.80
774;DHT22;370;48.810;9.150;2022-08-21T03:44:58;15.40;12.90
774;DHT22;370;48.810;9.150;2022-08-21T03:47:25;15.40;13.00
774;DHT22;370;48.810;9.150;2022-08-21T03:49:51;15.40;13.10
774;DHT22;370;48.810;9.150;2022-08-21T03:52:19;15.40;13.20
774;DHT22;370;48.810;9.150;2022-08-21T03:54:46;15.30;13.30
774;DHT22;370;48.810;9.150;2022-08-21T03:57:14;15.30;13.10
774;DHT22;370;48.810;9.150;2022-08-21T03:59:41;15.30;13.00
774;DHT22;370;48.810;9.150;2022-08-21T04:02:08;15.30;13.00
774;DHT22;370;48.810;9.150;2022-08-21T04:04:36;15.30;13.10
774;DHT22;370;48.810;9.150;2022-08-21T04:07:03;15.20;13.30
774;DHT22;370;48.810;9.150;2022-08-21T04:09:30;15.20;13.90
774;DHT22;370;48.810;9.150;2022-08-21T04:11:58;15.20;14.00
774;DHT22;370;48.810;9.150;2022-08-21T04:14:26;15.20;14.10
774;DHT22;370;48.810;9.150;2022-08-21T04:16:53;15.20;14.40
774;DHT22;370;48.810;9.150;2022-08-21T04:19:20;15.10;14.80
774;DHT22;370;48.810;9.150;2022-08-21T04:21:46;15.10;15.00
774;DHT22;370;48.810;9.150;2022-08-21T04:24:15;15.10;15.20
774;DHT22;370;48.810;9.150;2022-08-21T04:26:41;15.10;15.30
774;DHT22;370;48.810;9.150;2022-08-21T04:29:08;15.10;15.20
774;DHT22;370;48.810;9.150;2022-08-21T04:31:36;15.00;15.50
774;DHT22;370;48.810;9.150;2022-08-21T04:34:04;15.00;15.80
774;DHT22;370;48.810;9.150;2022-08-21T04:36:31;15.00;15.50
774;DHT22;370;48.810;9.150;2022-08-21T04:38:58;15.00;15.20
774;DHT22;370;48.810;9.150;2022-08-21T04:41:25;15.00;15.30
774;DHT22;370;48.810;9.150;2022-08-21T04:43:51;15.00;15.40
774;DHT22;370;48.810;9.150;2022-08-21T04:46:20;15.00;15.30
774;DHT22;370;48.810;9.150;2022-08-21T04:48:49;15.00;15.50
774;DHT22;370;48.810;9.150;2022-08-21T04:51:19;15.00;15.80
774;DHT22;370;48.810;9.150;2022-08-21T04:53:50;15.00;16.40
774;DHT22;370;48.810;9.150;2022-08-21T04:56:21;15.10;16.30
774;DHT22;370;48.810;9.150;2022-08-21T04:58:49;15.10;16.00
774;DHT22;370;48.810;9.150;2022-08-21T05:01:19;15.20;15.90
774;DHT22;370;48.810;9.150;2022-08-21T05:03:49;15.20;15.40
774;DHT22;370;48.810;9.150;2022-08-21T05:06:16;15.20;15.80
774;DHT22;370;48.810;9.150;2022-08-21T05:08:45;15.30;15.80
774;DHT22;370;48.810;9.150;2022-08-21T05:11:13;15.30;15.60
774;DHT22;370;48.810;9.150;2022-08-21T05:13:40;15.40;15.50
774;DHT22;370;48.810;9.150;2022-08-21T05:16:07;15.50;15.40
774;DHT22;370;48.810;9.150;2022-08-21T05:18:34;15.60;15.00
774;DHT22;370;48.810;9.150;2022-08-21T05:21:02;15.70;14.50
774;DHT22;370;48.810;9.150;2022-08-21T05:23:29;15.80;14.10
774;DHT22;370;48.810;9.150;2022-08-21T05:25:56;15.90;13.50
774;DHT22;370;48.810;9.150;2022-08-21T05:28:23;16.10;12.90
774;DHT22;370;48.810;9.150;2022-08-21T05:30:51;16.20;12.00
774;DHT22;370;48.810;9.150;2022-08-21T05:33:18;16.30;11.60
774;DHT22;370;48.810;9.150;2022-08-21T05:35:44;16.40;10.80
774;DHT22;370;48.810;9.150;2022-08-21T05:38:12;16.50;10.60
774;DHT22;370;48.810;9.150;2022-08-21T05:40:39;16.70;9.60
774;DHT22;370;48.810;9.150;2022-08-21T05:43:05;16.80;9.60
774;DHT22;370;48.810;9.150;2022-08-21T05:45:33;17.00;9.00
774;DHT22;370;48.810;9.150;2022-08-21T05:48:05;17.10;8.00
774;DHT22;370;48.810;9.150;2022-08-21T05:50:32;17.30;7.50
774;DHT22;370;48.810;9.150;2022-08-21T05:52:59;17.40;7.10
774;DHT22;370;48.810;9.150;2022-08-21T05:55:27;17.60;6.60
774;DHT22;370;48.810;9.150;2022-08-21T05:57:54;17.70;6.50
774;DHT22;370;48.810;9.150;2022-08-21T06:00:21;17.90;5.60
774;DHT22;370;48.810;9.150;2022-08-21T06:02:48;18.00;4.90
774;DHT22;370;48.810;9.150;2022-08-21T06:05:15;18.20;4.10
774;DHT22;370;48.810;9.150;2022-08-21T06:07:42;18.30;3.20
774;DHT22;370;48.810;9.150;2022-08-21T06:10:09;18.50;2.90
774;DHT22;370;48.810;9.150;2022-08-21T06:12:37;18.70;1.90
774;DHT22;370;48.810;9.150;2022-08-21T06:15:04;18.80;1.90
774;DHT22;370;48.810;9.150;2022-08-21T06:17:31;18.90;1.30
774;DHT22;370;48.810;9.150;2022-08-21T06:19:58;19.00;1.00
774;DHT22;370;48.810;9.150;2022-08-21T06:22:25;19.20;1.20
774;DHT22;370;48.810;9.150;2022-08-21T06:24:51;19.30;1.00
774;DHT22;370;48.810;9.150;2022-08-21T06:27:18;19.50;1.00
774;DHT22;370;48.810;9.150;2022-08-21T06:29:46;19.60;1.00
774;DHT22;370;48.810;9.150;2022-08-21T06:32:13;19.80;1.00
774;DHT22;370;48.810;9.150;2022-08-21T06:34:41;20.00;1.00
774;DHT22;370;48.810;9.150;2022-08-21T06:37:08;20.20;1.00
774;DHT22;370;48.810;9.150;2022-08-21T06:39:35;20.40;1.00
774;DHT22;370;48.810;9.150;2022-08-21T06:42:01;20.60;1.00
774;DHT22;370;48.810;9.150;2022-08-21T06:44:29;20.80;1.00
774;DHT22;370;48.810;9.150;2022-08-21T06:46:57;21.00;1.00
774;DHT22;370;48.810;9.150;2022-08-21T06:49:23;21.20;1.00
774;DHT22;370;48.810;9.150;2022-08-21T06:51:50;21.30;1.00
774;DHT22;370;48.810;9.150;2022-08-21T06:54:17;21.50;1.00
774;DHT22;370;48.810;9.150;2022-08-21T06:56:43;21.70;1.00
774;DHT22;370;48.810;9.150;2022-08-21T06:59:10;21.90;1.00
774;DHT22;370;48.810;9.150;2022-08-21T07:01:37;22.10;1.00
774;DHT22;370;48.810;9.150;2022-08-21T07:04:05;22.30;1.00
774;DHT22;370;48.810;9.150;2022-08-21T07:06:33;22.50;1.00
774;DHT22;370;48.810;9.150;2022-08-21T07:08:59;22.70;1.00
774;DHT22;370;48.810;9.150;2022-08-21T07:11:26;23.00;1.00
774;DHT22;370;48.810;9.150;2022-08-21T07:13:53;23.30;1.00
774;DHT22;370;48.810;9.150;2022-08-21T07:16:22;23.50;1.00
774;DHT22;370;48.810;9.150;2022-08-21T07:18:48;23.70;1.00
774;DHT22;370;48.810;9.150;2022-08-21T07:21:16;23.90;1.00
774;DHT22;370;48.810;9.150;2022-08-21T07:23:47;24.20;1.00
774;DHT22;370;48.810;9.150;2022-08-21T07:26:16;24.60;1.00
774;DHT22;370;48.810;9.150;2022-08-21T07:28:43;24.90;1.00
774;DHT22;370;48.810;9.150;2022-08-21T07:31:14;25.20;1.00
774;DHT22;370;48.810;9.150;2022-08-21T07:33:41;25.50;1.00
774;DHT22;370;48.810;9.150;2022-08-21T07:36:08;25.90;1.00
774;DHT22;370;48.810;9.150;2022-08-21T07:38:36;26.20;1.00
774;DHT22;370;48.810;9.150;2022-08-21T07:41:15;26.60;1.00
774;DHT22;370;48.810;9.150;2022-08-21T07:43:42;27.00;1.00
774;DHT22;370;48.810;9.150;2022-08-21T07:46:09;27.60;1.00
774;DHT22;370;48.810;9.150;2022-08-21T07:48:36;28.10;1.00
774;DHT22;370;48.810;9.150;2022-08-21T07:51:06;28.50;1.00
774;DHT22;370;48.810;9.150;2022-08-21T07:53:33;28.90;1.00
774;DHT22;370;48.810;9.150;2022-08-21T07:56:03;29.40;1.00
774;DHT22;370;48.810;9.150;2022-08-21T07:58:30;29.80;1.00
774;DHT22;370;48.810;9.150;2022-08-21T08:00:57;30.20;1.00
774;DHT22;370;48.810;9.150;2022-08-21T08:03:23;30.40;1.00
774;DHT22;370;48.810;9.150;2022-08-21T08:05:50;30.60;1.00
774;DHT22;370;48.810;9.150;2022-08-21T08:08:17;30.90;1.00
774;DHT22;370;48.810;9.150;2022-08-21T08:14:06;31.40;1.00
774;DHT22;370;48.810;9.150;2022-08-21T08:16:33;31.80;1.00
774;DHT22;370;48.810;9.150;2022-08-21T08:19:00;32.20;1.00
774;DHT22;370;48.810;9.150;2022-08-21T08:21:27;32.90;1.00
774;DHT22;370;48.810;9.150;2022-08-21T08:23:54;33.40;1.00
774;DHT22;370;48.810;9.150;2022-08-21T08:26:20;33.70;1.00
774;DHT22;370;48.810;9.150;2022-08-21T08:28:47;34.00;1.00
774;DHT22;370;48.810;9.150;2022-08-21T08:31:15;34.40;1.00
774;DHT22;370;48.810;9.150;2022-08-21T08:33:42;34.80;1.00
774;DHT22;370;48.810;9.150;2022-08-21T08:36:13;35.10;1.00
774;DHT22;370;48.810;9.150;2022-08-21T08:38:40;35.30;1.00
774;DHT22;370;48.810;9.150;2022-08-21T08:41:11;35.80;1.00
774;DHT22;370;48.810;9.150;2022-08-21T08:43:39;36.30;1.00
774;DHT22;370;48.810;9.150;2022-08-21T08:46:12;36.60;1.00
774;DHT22;370;48.810;9.150;2022-08-21T08:48:47;37.00;1.00
774;DHT22;370;48.810;9.150;2022-08-21T08:51:22;37.40;1.00
774;DHT22;370;48.810;9.150;2022-08-21T08:53:52;37.90;1.00
774;DHT22;370;48.810;9.150;2022-08-21T08:56:28;38.60;1.00
774;DHT22;370;48.810;9.150;2022-08-21T08:58:59;38.80;1.00
774;DHT22;370;48.810;9.150;2022-08-21T09:01:27;38.10;1.00
774;DHT22;370;48.810;9.150;2022-08-21T09:03:56;36.70;1.00
774;DHT22;370;48.810;9.150;2022-08-21T09:06:36;36.90;1.00
774;DHT22;370;48.810;9.150;2022-08-21T09:09:15;37.60;1.00
774;DHT22;370;48.810;9.150;2022-08-21T09:11:51;38.30;1.00
774;DHT22;370;48.810;9.150;2022-08-21T09:14:26;38.70;1.00
774;DHT22;370;48.810;9.150;2022-08-21T09:17:01;39.40;1.00
774;DHT22;370;48.810;9.150;2022-08-21T09:19:45;39.00;1.00
774;DHT22;370;48.810;9.150;2022-08-21T09:22:24;39.70;1.00
774;DHT22;370;48.810;9.150;2022-08-21T09:25:03;40.80;1.00
774;DHT22;370;48.810;9.150;2022-08-21T09:27:33;40.90;1.00
774;DHT22;370;48.810;9.150;2022-08-21T09:30:02;40.40;1.00
774;DHT22;370;48.810;9.150;2022-08-21T09:32:31;41.00;1.00
774;DHT22;370;48.810;9.150;2022-08-21T09:35:03;42.20;1.00
774;DHT22;370;48.810;9.150;2022-08-21T09:37:33;42.50;1.00
774;DHT22;370;48.810;9.150;2022-08-21T09:40:02;43.30;1.00
774;DHT22;370;48.810;9.150;2022-08-21T09:42:31;43.40;1.00
774;DHT22;370;48.810;9.150;2022-08-21T09:45:11;43.50;1.00
774;DHT22;370;48.810;9.150;2022-08-21T09:47:40;44.20;1.00
774;DHT22;370;48.810;9.150;2022-08-21T09:50:14;44.80;1.00
774;DHT22;370;48.810;9.150;2022-08-21T09:52:51;45.50;1.00
774;DHT22;370;48.810;9.150;2022-08-21T09:55:30;46.20;1.00
774;DHT22;370;48.810;9.150;2022-08-21T09:58:16;46.70;1.00
774;DHT22;370;48.810;9.150;2022-08-21T10:00:44;47.20;1.00
774;DHT22;370;48.810;9.150;2022-08-21T10:03:14;45.10;1.00
774;DHT22;370;48.810;9.150;2022-08-21T10:05:55;45.30;1.00
774;DHT22;370;48.810;9.150;2022-08-21T10:08:24;46.40;1.00
774;DHT22;370;48.810;9.150;2022-08-21T10:10:54;47.30;1.00
774;DHT22;370;48.810;9.150;2022-08-21T10:13:31;48.40;1.00
774;DHT22;370;48.810;9.150;2022-08-21T10:16:12;48.80;1.00
774;DHT22;370;48.810;9.150;2022-08-21T10:18:45;48.70;1.00
774;DHT22;370;48.810;9.150;2022-08-21T10:21:22;49.40;1.00
774;DHT22;370;48.810;9.150;2022-08-21T10:24:00;49.90;1.00
774;DHT22;370;48.810;9.150;2022-08-21T10:26:39;50.60;1.00
774;DHT22;370;48.810;9.150;2022-08-21T10:29:18;50.80;1.00
774;DHT22;370;48.810;9.150;2022-08-21T10:31:54;51.00;1.00
774;DHT22;370;48.810;9.150;2022-08-21T10:34:32;51.80;1.00
774;DHT22;370;48.810;9.150;2022-08-21T10:37:16;52.00;1.00
774;DHT22;370;48.810;9.150;2022-08-21T10:39:54;52.20;1.00
774;DHT22;370;48.810;9.150;2022-08-21T10:42:28;52.90;1.00
774;DHT22;370;48.810;9.150;2022-08-21T10:45:05;53.40;1.00
774;DHT22;370;48.810;9.150;2022-08-21T10:47:41;53.50;1.00
774;DHT22;370;48.810;9.150;2022-08-21T10:50:16;52.50;1.00
774;DHT22;370;48.810;9.150;2022-08-21T10:53:11;53.00;1.00
774;DHT22;370;48.810;9.150;2022-08-21T10:55:43;53.70;1.00
774;DHT22;370;48.810;9.150;2022-08-21T10:58:12;53.50;1.00
774;DHT22;370;48.810;9.150;2022-08-21T11:00:44;54.10;1.00
774;DHT22;370;48.810;9.150;2022-08-21T11:03:15;54.70;1.00
774;DHT22;370;48.810;9.150;2022-08-21T11:05:50;55.60;1.00
774;DHT22;370;48.810;9.150;2022-08-21T11:08:22;56.80;1.00
774;DHT22;370;48.810;9.150;2022-08-21T11:10:53;57.50;1.00
774;DHT22;370;48.810;9.150;2022-08-21T11:13:27;58.30;1.00
774;DHT22;370;48.810;9.150;2022-08-21T11:16:02;58.60;1.00
774;DHT22;370;48.810;9.150;2022-08-21T11:18:35;59.30;1.00
774;DHT22;370;48.810;9.150;2022-08-21T11:21:13;58.70;1.00
774;DHT22;370;48.810;9.150;2022-08-21T11:23:46;57.20;1.00
774;DHT22;370;48.810;9.150;2022-08-21T11:26:18;55.60;1.00
774;DHT22;370;48.810;9.150;2022-08-21T11:28:52;56.90;1.00
774;DHT22;370;48.810;9.150;2022-08-21T11:31:34;57.50;1.00
774;DHT22;370;48.810;9.150;2022-08-21T11:34:14;58.10;1.00
774;DHT22;370;48.810;9.150;2022-08-21T11:36:51;58.90;1.00
774;DHT22;370;48.810;9.150;2022-08-21T11:39:25;59.00;1.00
774;DHT22;370;48.810;9.150;2022-08-21T11:41:59;59.40;1.00
774;DHT22;370;48.810;9.150;2022-08-21T11:44:37;58.00;1.00
774;DHT22;370;48.810;9.150;2022-08-21T11:47:12;57.80;1.00
774;DHT22;370;48.810;9.150;2022-08-21T11:49:49;58.70;1.00
774;DHT22;370;48.810;9.150;2022-08-21T11:52:23;58.90;1.00
774;DHT22;370;48.810;9.150;2022-08-21T11:54:59;59.50;1.00
774;DHT22;370;48.810;9.150;2022-08-21T11:57:31;59.90;1.00
774;DHT22;370;48.810;9.150;2022-08-21T12:00:04;58.60;1.00
774;DHT22;370;48.810;9.150;2022-08-21T12:02:35;58.40;1.00
774;DHT22;370;48.810;9.150;2022-08-21T12:05:05;58.50;1.00
774;DHT22;370;48.810;9.150;2022-08-21T12:07:36;57.40;1.00
774;DHT22;370;48.810;9.150;2022-08-21T12:10:08;58.20;1.00
774;DHT22;370;48.810;9.150;2022-08-21T12:12:37;58.10;1.00
774;DHT22;370;48.810;9.150;2022-08-21T12:15:25;55.70;1.00
774;DHT22;370;48.810;9.150;2022-08-21T12:17:58;52.80;1.00
774;DHT22;370;48.810;9.150;2022-08-21T12:20:43;51.90;1.00
774;DHT22;370;48.810;9.150;2022-08-21T12:23:24;53.50;1.00
774;DHT22;370;48.810;9.150;2022-08-21T12:26:03;54.40;1.00
774;DHT22;370;48.810;9.150;2022-08-21T12:28:35;55.20;1.00
774;DHT22;370;48.810;9.150;2022-08-21T12:31:03;55.00;1.00
774;DHT22;370;48.810;9.150;2022-08-21T12:33:32;55.20;1.00
774;DHT22;370;48.810;9.150;2022-08-21T12:36:06;53.00;1.00
774;DHT22;370;48.810;9.150;2022-08-21T12:38:42;52.20;1.00
774;DHT22;370;48.810;9.150;2022-08-21T12:41:19;53.30;1.00
774;DHT22;370;48.810;9.150;2022-08-21T12:43:53;54.60;1.00
774;DHT22;370;48.810;9.150;2022-08-21T12:46:29;54.90;1.00
774;DHT22;370;48.810;9.150;2022-08-21T12:49:02;52.60;1.00
774;DHT22;370;48.810;9.150;2022-08-21T12:51:36;51.10;1.00
774;DHT22;370;48.810;9.150;2022-08-21T12:54:04;51.20;1.00
774;DHT22;370;48.810;9.150;2022-08-21T12:56:34;52.00;1.00
774;DHT22;370;48.810;9.150;2022-08-21T12:59:04;52.20;1.00
774;DHT22;370;48.810;9.150;2022-08-21T13:01:33;51.60;1.00
774;DHT22;370;48.810;9.150;2022-08-21T13:04:04;49.00;1.00
774;DHT22;370;48.810;9.150;2022-08-21T13:06:39;46.40;1.00
774;DHT22;370;48.810;9.150;2022-08-21T13:09:10;46.60;1.00
774;DHT22;370;48.810;9.150;2022-08-21T13:11:39;47.20;1.00
774;DHT22;370;48.810;9.150;2022-08-21T13:14:13;48.60;1.00
774;DHT22;370;48.810;9.150;2022-08-21T13:16:41;49.40;1.00
774;DHT22;370;48.810;9.150;2022-08-21T13:19:11;50.10;1.00
774;DHT22;370;48.810;9.150;2022-08-21T13:21:44;50.50;1.00
774;DHT22;370;48.810;9.150;2022-08-21T13:24:15;50.80;1.00
774;DHT22;370;48.810;9.150;2022-08-21T13:26:44;51.10;1.00
774;DHT22;370;48.810;9.150;2022-08-21T13:29:13;51.40;1.00
774;DHT22;370;48.810;9.150;2022-08-21T13:31:47;51.60;1.00
774;DHT22;370;48.810;9.150;2022-08-21T13:34:15;51.00;1.00
774;DHT22;370;48.810;9.150;2022-08-21T13:36:44;51.10;1.00
774;DHT22;370;48.810;9.150;2022-08-21T13:39:14;51.00;1.00
774;DHT22;370;48.810;9.150;2022-08-21T13:41:46;50.70;1.00
774;DHT22;370;48.810;9.150;2022-08-21T13:44:18;47.70;1.00
774;DHT22;370;48.810;9.150;2022-08-21T13:46:48;46.80;1.00
774;DHT22;370;48.810;9.150;2022-08-21T13:49:17;47.00;1.00
774;DHT22;370;48.810;9.150;2022-08-21T13:51:45;45.50;1.00
774;DHT22;370;48.810;9.150;2022-08-21T13:54:22;45.20;1.00
774;DHT22;370;48.810;9.150;2022-08-21T13:56:50;44.10;1.00
774;DHT22;370;48.810;9.150;2022-08-21T13:59:26;44.60;1.00
774;DHT22;370;48.810;9.150;2022-08-21T14:01:55;44.30;1.00
774;DHT22;370;48.810;9.150;2022-08-21T14:04:33;45.00;1.00
774;DHT22;370;48.810;9.150;2022-08-21T14:07:02;45.50;1.00
774;DHT22;370;48.810;9.150;2022-08-21T14:09:32;45.30;1.00
774;DHT22;370;48.810;9.150;2022-08-21T14:12:19;44.80;1.00
774;DHT22;370;48.810;9.150;2022-08-21T14:14:50;44.40;1.00
774;DHT22;370;48.810;9.150;2022-08-21T14:17:27;44.00;1.00
774;DHT22;370;48.810;9.150;2022-08-21T14:19:54;43.10;1.00
774;DHT22;370;48.810;9.150;2022-08-21T14:22:29;41.80;1.00
774;DHT22;370;48.810;9.150;2022-08-21T14:25:02;41.20;1.00
774;DHT22;370;48.810;9.150;2022-08-21T14:27:33;40.80;1.00
774;DHT22;370;48.810;9.150;2022-08-21T14:30:07;40.90;1.00
774;DHT22;370;48.810;9.150;2022-08-21T14:32:38;41.10;1.00
774;DHT22;370;48.810;9.150;2022-08-21T14:35:05;41.20;1.00
774;DHT22;370;48.810;9.150;2022-08-21T14:37:32;41.40;1.00
774;DHT22;370;48.810;9.150;2022-08-21T14:39:59;41.60;1.00
774;DHT22;370;48.810;9.150;2022-08-21T14:42:26;41.40;1.00
774;DHT22;370;48.810;9.150;2022-08-21T14:45:05;41.00;1.00
774;DHT22;370;48.810;9.150;2022-08-21T14:47:33;40.60;1.00
774;DHT22;370;48.810;9.150;2022-08-21T14:50:00;40.20;1.00
774;DHT22;370;48.810;9.150;2022-08-21T14:52:27;39.40;1.00
774;DHT22;370;48.810;9.150;2022-08-21T14:54:54;39.60;1.00
774;DHT22;370;48.810;9.150;2022-08-21T14:57:20;39.60;1.00
774;DHT22;370;48.810;9.150;2022-08-21T14:59:47;39.00;1.00
774;DHT22;370;48.810;9.150;2022-08-21T15:02:16;38.60;1.00
774;DHT22;370;48.810;9.150;2022-08-21T15:04:42;38.10;1.00
774;DHT22;370;48.810;9.150;2022-08-21T15:07:09;38.10;1.00
774;DHT22;370;48.810;9.150;2022-08-21T15:09:36;38.10;1.00
774;DHT22;370;48.810;9.150;2022-08-21T15:12:04;38.00;1.00
774;DHT22;370;48.810;9.150;2022-08-21T15:14:36;37.90;1.00
774;DHT22;370;48.810;9.150;2022-08-21T15:17:05;37.40;1.00
774;DHT22;370;48.810;9.150;2022-08-21T15:19:34;37.30;1.00
774;DHT22;370;48.810;9.150;2022-08-21T15:22:00;37.10;1.00
774;DHT22;370;48.810;9.150;2022-08-21T15:24:27;36.90;1.00
774;DHT22;370;48.810;9.150;2022-08-21T15:26:55;36.60;1.00
774;DHT22;370;48.810;9.150;2022-08-21T15:29:22;36.50;1.00
774;DHT22;370;48.810;9.150;2022-08-21T15:31:52;36.20;1.00
774;DHT22;370;48.810;9.150;2022-08-21T15:34:19;35.90;1.00
774;DHT22;370;48.810;9.150;2022-08-21T15:36:48;35.70;1.00
774;DHT22;370;48.810;9.150;2022-08-21T15:39:14;35.40;1.00
774;DHT22;370;48.810;9.150;2022-08-21T15:41:42;35.20;1.00
774;DHT22;370;48.810;9.150;2022-08-21T15:44:09;34.80;1.00
774;DHT22;370;48.810;9.150;2022-08-21T15:46:38;34.80;1.00
774;DHT22;370;48.810;9.150;2022-08-21T15:49:05;34.70;1.00
774;DHT22;370;48.810;9.150;2022-08-21T15:51:31;34.70;1.00
774;DHT22;370;48.810;9.150;2022-08-21T15:54:00;34.40;1.00
774;DHT22;370;48.810;9.150;2022-08-21T15:56:32;34.30;1.00
774;DHT22;370;48.810;9.150;2022-08-21T15:59:01;34.30;1.00
774;DHT22;370;48.810;9.150;2022-08-21T16:01:28;34.10;1.00
774;DHT22;370;48.810;9.150;2022-08-21T16:03:55;34.00;1.00
774;DHT22;370;48.810;9.150;2022-08-21T16:06:22;33.90;1.00
774;DHT22;370;48.810;9.150;2022-08-21T16:08:49;33.70;1.00
774;DHT22;370;48.810;9.150;2022-08-21T16:11:18;33.40;1.00
774;DHT22;370;48.810;9.150;2022-08-21T16:13:46;33.30;1.00
774;DHT22;370;48.810;9.150;2022-08-21T16:16:16;33.10;1.00
774;DHT22;370;48.810;9.150;2022-08-21T16:18:44;32.80;1.00
774;DHT22;370;48.810;9.150;2022-08-21T16:21:11;32.40;1.00
774;DHT22;370;48.810;9.150;2022-08-21T16:23:38;32.20;1.00
774;DHT22;370;48.810;9.150;2022-08-21T16:26:07;31.70;1.00
774;DHT22;370;48.810;9.150;2022-08-21T16:28:37;31.40;1.00
774;DHT22;370;48.810;9.150;2022-08-21T16:31:04;31.20;1.00
774;DHT22;370;48.810;9.150;2022-08-21T16:33:33;30.90;1.00
774;DHT22;370;48.810;9.150;2022-08-21T16:36:01;30.80;1.00
774;DHT22;370;48.810;9.150;2022-08-21T16:38:28;30.60;1.00
774;DHT22;370;48.810;9.150;2022-08-21T16:40:57;30.50;1.00
774;DHT22;370;48.810;9.150;2022-08-21T16:43:28;30.30;1.00
774;DHT22;370;48.810;9.150;2022-08-21T16:45:57;30.20;1.00
774;DHT22;370;48.810;9.150;2022-08-21T16:48:24;30.10;1.00
774;DHT22;370;48.810;9.150;2022-08-21T16:50:51;29.70;1.00
774;DHT22;370;48.810;9.150;2022-08-21T16:53:18;29.60;1.00
774;DHT22;370;48.810;9.150;2022-08-21T16:55:46;29.40;1.00
774;DHT22;370;48.810;9.150;2022-08-21T16:58:16;29.30;1.00
774;DHT22;370;48.810;9.150;2022-08-21T17:00:45;29.30;1.00
774;DHT22;370;48.810;9.150;2022-08-21T17:03:16;29.20;1.00
774;DHT22;370;48.810;9.150;2022-08-21T17:05:45;29.10;1.00
774;DHT22;370;48.810;9.150;2022-08-21T17:08:12;29.00;1.00